D/T METAR WX W/DIR W/SPE G/SPE TEMP DEWP
7/12/19 20:50 EGNH 072050Z 21018KT 9999 FEW012 09/08 Q0999 SSW (210°) 20.7mph 9°C 8°C
7/12/19 20:20 EGNH 072020Z 22022KT 9999 FEW035 10/08 Q1000 SW (220°) 25.3mph 10°C 8°C
7/12/19 19:50 EGNH 071950Z 22022KT 9999 FEW035 09/07 Q1001 SW (220°) 25.3mph 9°C 7°C
7/12/19 19:20 EGNH 071920Z 22018KT 9999 FEW035 09/07 Q1002 SW (220°) 20.7mph 9°C 7°C
7/12/19 18:50 EGNH 071850Z 21014KT 9999 FEW036 09/07 Q1003 SSW (210°) 16.1mph 9°C 7°C
7/12/19 18:20 EGNH 071820Z 22015KT 9999 FEW036 09/08 Q1003 SW (220°) 17.3mph 9°C 8°C
7/12/19 17:50 EGNH 071750Z 23017KT 9999 FEW036 09/08 Q1004 SW (230°) 19.6mph 9°C 8°C
7/12/19 17:20 EGNH 071720Z 22012KT 9999 FEW036 09/07 Q1005 SW (220°) 13.8mph 9°C 7°C
7/12/19 16:50 EGNH 071650Z 22016KT 9999 FEW036 09/08 Q1005 SW (220°) 18.4mph 9°C 8°C
7/12/19 16:20 EGNH 071620Z 23020KT 9999 FEW035 09/08 Q1005 SW (230°) 23.0mph 9°C 8°C
7/12/19 15:50 EGNH 071550Z 22017KT 9999 SCT038 09/08 Q1006 SW (220°) 19.6mph 9°C 8°C
7/12/19 15:20 EGNH 071520Z 22014KT 9999 SCT030 09/08 Q1006 SW (220°) 16.1mph 9°C 8°C
7/12/19 14:20 EGNH 071420Z 23008KT 7000 FEW010 BKN020 09/08 Q1007 REDZ SW (230°) 9.2mph 9°C 8°C
7/12/19 13:20 EGNH 071320Z 22008KT 9999 FEW016 BKN028 09/07 Q1008 SW (220°) 9.2mph 9°C 7°C
7/12/19 12:20 EGNH 071220Z 22011KT 9999 FEW025 BKN040 09/07 Q1009 SW (220°) 12.7mph 9°C 7°C
7/12/19 11:50 EGNH 071150Z 24013KT 9999 FEW013 BKN027 09/07 Q1009 WSW (240°) 15.0mph 9°C 7°C
7/12/19 10:50 EGNH 071050Z 25016KT 9999 BKN020 09/07 Q1010 WSW (250°) 18.4mph 9°C 7°C
7/12/19 10:20 EGNH 071020Z 25015KT 9999 FEW005 BKN020 08/08 Q1010 WSW (250°) 17.3mph 8°C 8°C
7/12/19 09:50 EGNH 070950Z 25014KT 9999 FEW005 BKN017 09/08 Q1010 WSW (250°) 16.1mph 9°C 8°C
7/12/19 09:20 EGNH 070920Z 25013KT 9999 SCT010 BKN024 09/08 Q1010 WSW (250°) 15.0mph 9°C 8°C
7/12/19 08:50 EGNH 070850Z 26014KT 9999 FEW012 BKN026 09/07 Q1010 W (260°) 16.1mph 9°C 7°C
7/12/19 08:20 EGNH 070820Z 26013KT 9999 FEW010 BKN022 09/07 Q1010 W (260°) 15.0mph 9°C 7°C
7/12/19 07:50 EGNH 070750Z 28012KT 9999 FEW008 BKN020 09/08 Q1010 W (280°) 13.8mph 9°C 8°C
7/12/19 07:20 EGNH 070720Z 27013KT 9999 FEW015 BKN031 09/08 Q1010 W (270°) 15.0mph 9°C 8°C
7/12/19 06:50 EGNH 070650Z 28013KT 9999 FEW013 SCT033 09/07 Q1010 W (280°) 15.0mph 9°C 7°C
7/12/19 06:20 EGNH 070620Z 29013KT 9999 FEW017 SCT043 09/07 Q1010 WNW (290°) 15.0mph 9°C 7°C
6/12/19 20:50 EGNH 062050Z 30016KT 9999 FEW012 BKN031 09/07 Q1004 WNW (300°) 18.4mph 9°C 7°C
6/12/19 20:20 EGNH 062020Z 30016KT 9999 FEW012 BKN034 09/07 Q1004 WNW (300°) 18.4mph 9°C 7°C
6/12/19 19:50 EGNH 061950Z 30015KT 9999 FEW012 SCT028 09/08 Q1004 WNW (300°) 17.3mph 9°C 8°C
6/12/19 19:20 EGNH 061920Z 29015KT 9999 FEW015 SCT023 09/08 Q1003 WNW (290°) 17.3mph 9°C 8°C
6/12/19 18:50 EGNH 061850Z 29019KT 9999 FEW020 SCT040 09/08 Q1003 WNW (290°) 21.9mph 9°C 8°C
6/12/19 18:20 EGNH 061820Z 29017KT 9999 FEW015 SCT030 09/08 Q1002 WNW (290°) 19.6mph 9°C 8°C
6/12/19 17:50 EGNH 061750Z 30017KT 9999 SCT029 09/08 Q1002 WNW (300°) 19.6mph 9°C 8°C
6/12/19 17:20 EGNH 061720Z 30015KT 9999 SCT025 09/08 Q1001 WNW (300°) 17.3mph 9°C 8°C
6/12/19 16:50 EGNH 061650Z 30017KT 9999 FEW025 SCT044 09/08 Q1000 WNW (300°) 19.6mph 9°C 8°C
6/12/19 16:20 EGNH 061620Z 30017KT 9999 SCT024 09/08 Q0999 WNW (300°) 19.6mph 9°C 8°C
6/12/19 15:50 EGNH 061550Z 29017KT 9999 FEW014 SCT036 09/08 Q0998 WNW (290°) 19.6mph 9°C 8°C
6/12/19 15:20 EGNH 061520Z 29015KT 9999 FEW015 SCT038 09/08 Q0998 WNW (290°) 17.3mph 9°C 8°C
6/12/19 14:50 EGNH 061450Z 29016KT 9000 -RA FEW005 SCT014 BKN031 09/08 Q0998 -RA WNW (290°) 18.4mph 9°C 8°C
6/12/19 14:20 EGNH 061420Z 27017KT 9000 -RA FEW005 SCT017 BKN033 09/08 Q0997 -RA W (270°) 19.6mph 9°C 8°C
6/12/19 13:50 EGNH 061350Z 27017KT 9999 SCT020 SCT025 09/08 Q0997 W (270°) 19.6mph 9°C 8°C
6/12/19 13:20 EGNH 061320Z 27018KT 9000 FEW014 SCT029 09/08 Q0997 W (270°) 20.7mph 9°C 8°C
6/12/19 12:50 EGNH 061250Z 27017KT 8000 -SHRA FEW010 SCT027 09/09 Q0997 -SHRA W (270°) 19.6mph 9°C 9°C
6/12/19 11:50 EGNH 061150Z 28013KT 7000 SHRA FEW006 SCT016 10/08 Q0997 SHRA W (280°) 15.0mph 10°C 8°C
6/12/19 11:20 EGNH 061120Z 27020KT 9999 FEW015 BKN034 10/09 Q0998 W (270°) 23.0mph 10°C 9°C
6/12/19 10:50 EGNH 061050Z 27019KT 9999 FEW010 SCT020 09/08 Q0998 W (270°) 21.9mph 9°C 8°C
6/12/19 10:20 EGNH 061020Z 26019KT 9999 4000SE -RA FEW005 SCT020 10/09 Q0998 -RA W (260°) 21.9mph 10°C 9°C
6/12/19 09:50 EGNH 060950Z 27017KT 9999 4000SE -RA SCT002 10/09 Q0998 -RA W (270°) 19.6mph 10°C 9°C